Time;durP1;ratioP1;P1;durP2;ratioP2;P2;SDS_P1;SDS_P2;PMS_P1;PMS_P2;Temp;Humidity;BMP_temperature;BMP_pressure;BME280_temperature;BME280_humidity;BME280_pressure;Samples;Min_cycle;Max_cycle;Signal;HPM_P1;HPM_P2
2022/10/16 00:02:39;;;;;;;12.77;2.83;;;19.50;64.00;;;;;;6102038;29;20381;-80
2022/10/16 00:05:42;;;;;;;5.13;1.85;;;19.50;64.10;;;;;;6102680;29;20036;-80
2022/10/16 00:08:43;;;;;;;2.67;1.63;;;19.50;64.00;;;;;;6102136;29;20044;-81
2022/10/16 00:11:45;;;;;;;5.75;2.35;;;19.50;64.00;;;;;;6102523;29;20108;-81
2022/10/16 00:14:46;;;;;;;5.00;2.20;;;19.50;63.90;;;;;;6117750;29;20411;-80
2022/10/16 00:17:47;;;;;;;7.03;2.10;;;19.50;63.70;;;;;;6103882;29;20055;-80
2022/10/16 00:20:47;;;;;;;7.38;1.92;;;19.60;63.70;;;;;;6117941;29;20394;-80
2022/10/16 00:23:58;;;;;;;3.50;1.95;;;19.50;63.60;;;;;;6103117;29;20054;-81
2022/10/16 00:27:01;;;;;;;9.13;2.10;;;19.50;63.60;;;;;;6096748;29;20048;-81
2022/10/16 00:30:03;;;;;;;5.45;2.97;;;19.50;63.60;;;;;;6100981;29;20091;-81
2022/10/16 00:33:04;;;;;;;4.97;2.95;;;19.40;63.80;;;;;;6106039;29;20035;-81
2022/10/16 00:36:06;;;;;;;11.85;2.50;;;19.40;64.00;;;;;;6109758;29;20107;-80
2022/10/16 00:39:07;;;;;;;5.45;2.67;;;19.30;64.10;;;;;;6101095;29;20123;-81
2022/10/16 00:42:20;;;;;;;7.78;2.30;;;19.30;64.30;;;;;;6100968;29;20155;-80
2022/10/16 00:45:21;;;;;;;3.50;2.13;;;19.20;64.40;;;;;;6100412;29;20107;-81
2022/10/16 00:48:22;;;;;;;3.50;1.88;;;19.20;64.60;;;;;;6100397;29;20127;-81
2022/10/16 00:51:28;;;;;;;4.15;2.00;;;19.10;64.70;;;;;;6098435;29;20111;-80
2022/10/16 00:54:31;;;;;;;3.13;1.80;;;19.10;64.70;;;;;;6100482;29;20126;-81
2022/10/16 00:57:32;;;;;;;4.00;2.42;;;19.10;64.70;;;;;;6101598;29;20028;-81
2022/10/16 01:00:33;;;;;;;13.20;2.53;;;19.10;64.70;;;;;;6101604;29;20051;-81
2022/10/16 01:03:35;;;;;;;8.13;1.77;;;19.10;64.70;;;;;;6101592;29;20055;-81
2022/10/16 01:06:43;;;;;;;3.83;1.83;;;19.00;64.70;;;;;;6101627;29;20082;-81
2022/10/16 01:10:21;;;;;;;9.77;1.90;;;19.00;64.70;;;;;;6100968;29;20115;-81
2022/10/16 01:13:27;;;;;;;3.80;1.95;;;19.00;64.70;;;;;;6098395;29;20032;-80
2022/10/16 01:17:07;;;;;;;3.40;2.00;;;19.00;64.60;;;;;;6103380;29;20052;-81
2022/10/16 01:20:31;;;;;;;4.95;2.20;;;19.00;64.60;;;;;;6094086;29;20351;-80
2022/10/16 01:23:38;;;;;;;3.72;1.83;;;19.00;64.60;;;;;;6096237;29;20036;-81
2022/10/16 01:27:05;;;;;;;5.60;2.03;;;19.00;64.60;;;;;;6099211;29;20386;-80
2022/10/16 01:30:33;;;;;;;4.70;1.67;;;19.00;64.60;;;;;;6098594;29;20453;-80
2022/10/16 01:33:47;;;;;;;2.85;1.70;;;18.90;64.70;;;;;;6085949;29;20063;-80
2022/10/16 01:36:56;;;;;;;6.95;1.88;;;18.90;64.70;;;;;;6115425;29;20123;-80
2022/10/16 01:40:02;;;;;;;2.63;1.70;;;18.90;64.60;;;;;;6091989;29;20048;-80
2022/10/16 01:43:08;;;;;;;5.45;2.00;;;18.90;64.70;;;;;;6099549;29;20032;-80
2022/10/16 01:46:12;;;;;;;6.13;2.58;;;18.90;64.70;;;;;;6101163;29;20033;-80
2022/10/16 01:49:15;;;;;;;9.50;2.67;;;18.80;64.70;;;;;;6097573;29;20134;-81
2022/10/16 01:52:22;;;;;;;5.47;2.47;;;18.80;64.80;;;;;;6099646;29;20044;-80
2022/10/16 01:55:29;;;;;;;7.93;2.58;;;18.80;64.90;;;;;;6102938;29;20044;-80
2022/10/16 01:58:35;;;;;;;4.77;2.57;;;18.80;65.00;;;;;;6094021;29;20466;-80
2022/10/16 02:01:40;;;;;;;5.35;2.45;;;18.80;65.20;;;;;;6098070;29;20485;-81
2022/10/16 02:04:46;;;;;;;7.65;2.92;;;18.70;65.20;;;;;;6102865;29;20130;-80
2022/10/16 02:07:48;;;;;;;5.60;2.20;;;18.70;65.30;;;;;;6102340;29;20039;-80
2022/10/16 02:10:49;;;;;;;11.18;2.90;;;18.70;65.20;;;;;;6102709;29;20047;-80
2022/10/16 02:14:02;;;;;;;6.95;2.72;;;18.80;65.20;;;;;;6102248;29;20071;-80
2022/10/16 02:17:11;;;;;;;5.03;2.20;;;18.70;65.30;;;;;;6080655;29;20039;-80
2022/10/16 02:20:12;;;;;;;4.45;2.35;;;18.80;65.20;;;;;;6103122;29;20103;-80
2022/10/16 02:23:24;;;;;;;5.40;2.83;;;18.80;65.10;;;;;;6094436;29;20060;-80
2022/10/16 02:26:40;;;;;;;6.60;2.70;;;18.80;65.20;;;;;;6100950;29;20032;-80
2022/10/16 02:29:49;;;;;;;11.65;2.47;;;18.80;65.20;;;;;;6102767;29;20043;-79
2022/10/16 02:32:51;;;;;;;;;;;18.80;65.10;;;;;;6115349;29;20076;-79
2022/10/16 02:35:53;;;;;;;4.60;2.08;;;18.90;65.00;;;;;;6108336;29;20424;-79
2022/10/16 02:38:54;;;;;;;3.70;2.05;;;18.90;64.80;;;;;;6104156;29;20071;-79
2022/10/16 02:41:56;;;;;;;11.73;2.10;;;18.80;64.90;;;;;;6107222;29;20115;-79
2022/10/16 02:44:56;;;;;;;6.00;2.33;;;18.70;65.00;;;;;;6107079;29;20628;-79
2022/10/16 02:47:57;;;;;;;5.88;2.33;;;18.60;65.20;;;;;;6127250;29;20066;-80
2022/10/16 02:50:58;;;;;;;3.33;1.77;;;18.60;65.40;;;;;;6133575;29;20066;-80
2022/10/16 02:53:59;;;;;;;3.90;2.10;;;18.50;65.40;;;;;;6113570;29;20072;-80
2022/10/16 02:57:00;;;;;;;5.35;2.10;;;18.50;65.40;;;;;;6095384;29;20052;-80
2022/10/16 03:00:00;;;;;;;4.35;2.10;;;18.50;65.60;;;;;;6103285;29;20043;-80
2022/10/16 03:03:01;;;;;;;10.55;2.17;;;18.50;65.70;;;;;;6103345;29;20028;-80
2022/10/16 03:06:03;;;;;;;6.38;1.90;;;18.50;65.80;;;;;;6102178;29;20040;-80
2022/10/16 03:09:03;;;;;;;7.25;2.30;;;18.50;65.90;;;;;;6104851;29;20537;-79
2022/10/16 03:12:04;;;;;;;6.88;1.90;;;18.50;65.90;;;;;;6106198;29;20103;-79
2022/10/16 03:15:06;;;;;;;3.00;1.98;;;18.50;65.90;;;;;;6107227;29;20037;-80
2022/10/16 03:18:07;;;;;;;5.22;2.13;;;18.60;65.80;;;;;;6100388;29;20113;-80
2022/10/16 03:21:08;;;;;;;3.90;1.95;;;18.60;65.80;;;;;;6112543;29;20044;-79
2022/10/16 03:24:09;;;;;;;6.05;1.75;;;18.50;65.60;;;;;;6116693;29;20047;-80
2022/10/16 03:27:10;;;;;;;3.60;1.92;;;18.60;65.70;;;;;;6103003;29;20481;-80
2022/10/16 03:30:11;;;;;;;3.63;1.90;;;18.60;65.70;;;;;;6102111;29;20410;-80
2022/10/16 03:33:12;;;;;;;8.93;2.03;;;18.60;65.60;;;;;;6103334;29;20055;-80
2022/10/16 03:36:13;;;;;;;8.35;2.30;;;18.60;65.70;;;;;;6103628;29;20072;-80
2022/10/16 03:39:14;;;;;;;5.72;2.45;;;18.50;65.60;;;;;;6100250;29;20036;-80
2022/10/16 03:42:15;;;;;;;2.97;1.65;;;18.50;65.60;;;;;;6102079;29;20051;-80
2022/10/16 03:45:16;;;;;;;5.72;2.40;;;18.50;65.60;;;;;;6102946;29;20478;-80
2022/10/16 03:48:17;;;;;;;5.05;2.40;;;18.50;65.60;;;;;;6102417;29;20032;-80
2022/10/16 03:51:18;;;;;;;5.20;2.40;;;18.40;65.60;;;;;;6103051;29;20052;-80
2022/10/16 03:54:19;;;;;;;8.15;2.10;;;18.50;65.60;;;;;;6100843;29;20036;-81
2022/10/16 03:57:20;;;;;;;14.65;2.35;;;18.40;65.50;;;;;;6102505;29;20036;-80
2022/10/16 04:00:22;;;;;;;9.20;2.00;;;18.40;65.50;;;;;;6101660;29;20052;-80
2022/10/16 04:03:23;;;;;;;3.42;2.00;;;18.40;65.60;;;;;;6108326;29;20037;-81
2022/10/16 04:06:23;;;;;;;6.38;1.98;;;18.40;65.60;;;;;;6100141;29;20358;-81
2022/10/16 04:09:24;;;;;;;12.05;2.20;;;18.40;65.70;;;;;;6093556;29;20119;-80
2022/10/16 04:12:26;;;;;;;4.38;2.00;;;18.40;65.60;;;;;;6098830;29;20070;-81
2022/10/16 04:15:28;;;;;;;7.72;2.17;;;18.40;65.60;;;;;;6099006;29;20366;-80
2022/10/16 04:18:29;;;;;;;4.40;1.63;;;18.30;65.70;;;;;;6098935;29;20071;-80
2022/10/16 04:21:30;;;;;;;5.00;2.33;;;18.20;65.70;;;;;;6099131;29;20052;-80
2022/10/16 04:24:31;;;;;;;3.08;1.83;;;18.20;65.90;;;;;;6103664;29;20039;-80
2022/10/16 04:27:32;;;;;;;4.63;2.15;;;18.20;66.10;;;;;;6102287;29;20381;-80
2022/10/16 04:30:33;;;;;;;4.40;1.80;;;18.10;66.10;;;;;;6099763;29;20044;-81
2022/10/16 04:33:34;;;;;;;4.40;2.20;;;18.10;66.30;;;;;;6100879;29;20327;-80
2022/10/16 04:36:35;;;;;;;5.15;2.13;;;18.10;66.40;;;;;;6102104;29;20052;-80
2022/10/16 04:39:36;;;;;;;5.25;1.73;;;18.00;66.40;;;;;;6101361;29;20450;-80
2022/10/16 04:42:37;;;;;;;6.90;1.90;;;18.00;66.50;;;;;;6098040;29;20572;-80
2022/10/16 04:45:38;;;;;;;4.93;2.03;;;17.90;66.60;;;;;;6111382;29;20410;-80
2022/10/16 04:48:39;;;;;;;3.05;2.03;;;18.00;66.70;;;;;;6105093;29;20059;-80
2022/10/16 04:51:39;;;;;;;4.03;1.92;;;18.00;66.80;;;;;;6103833;29;20135;-80
2022/10/16 04:54:40;;;;;;;3.50;1.98;;;17.90;66.70;;;;;;6104963;29;20452;-81
2022/10/16 04:57:41;;;;;;;5.57;2.40;;;17.90;66.80;;;;;;6104428;29;20048;-80
2022/10/16 05:00:43;;;;;;;3.03;1.95;;;17.90;66.80;;;;;;6106006;29;20062;-80
2022/10/16 05:03:45;;;;;;;5.40;2.03;;;17.90;66.80;;;;;;6104076;29;20040;-80
2022/10/16 05:06:48;;;;;;;2.85;1.73;;;17.90;66.80;;;;;;6103640;29;20131;-80
2022/10/16 05:09:48;;;;;;;6.63;2.47;;;17.90;66.80;;;;;;6101665;29;20433;-80
2022/10/16 05:12:51;;;;;;;10.20;2.88;;;17.90;66.80;;;;;;6099173;29;20044;-81
2022/10/16 05:15:51;;;;;;;4.47;2.30;;;18.00;66.80;;;;;;6103026;29;20051;-80
2022/10/16 05:18:53;;;;;;;4.97;2.25;;;17.90;66.70;;;;;;6102757;29;20331;-84
2022/10/16 05:21:54;;;;;;;6.10;2.45;;;17.90;66.80;;;;;;6105848;29;20473;-81
2022/10/16 05:24:55;;;;;;;5.10;3.80;;;17.90;66.70;;;;;;6107023;29;20115;-80
2022/10/16 05:27:55;;;;;;;8.35;4.28;;;17.90;66.80;;;;;;6105800;29;20410;-81
2022/10/16 05:30:57;;;;;;;9.07;5.40;;;17.90;66.80;;;;;;6106936;29;20044;-81
2022/10/16 05:34:01;;;;;;;19.27;11.07;;;17.90;66.90;;;;;;6106804;29;20059;-81
2022/10/16 05:37:02;;;;;;;17.63;12.30;;;17.80;66.90;;;;;;6105706;29;20044;-79
2022/10/16 05:40:04;;;;;;;22.40;15.70;;;17.80;67.00;;;;;;6102635;29;20040;-79
2022/10/16 05:43:05;;;;;;;15.20;9.55;;;17.80;67.00;;;;;;6106615;29;20048;-80
2022/10/16 05:46:06;;;;;;;17.52;12.77;;;17.70;66.90;;;;;;6091563;29;20100;-80
2022/10/16 05:49:08;;;;;;;16.17;10.88;;;17.70;67.00;;;;;;6105425;29;20047;-80
2022/10/16 05:52:09;;;;;;;17.33;11.85;;;17.70;67.00;;;;;;6101174;29;20071;-80
2022/10/16 05:55:10;;;;;;;17.13;9.35;;;17.70;67.10;;;;;;6104583;29;20048;-80
2022/10/16 05:58:11;;;;;;;13.15;6.88;;;17.70;67.20;;;;;;6105741;29;20032;-80
2022/10/16 06:01:15;;;;;;;12.82;6.28;;;17.70;67.20;;;;;;6105722;29;20064;-80
2022/10/16 06:04:17;;;;;;;13.30;3.88;;;17.70;67.20;;;;;;6103771;29;20051;-80
2022/10/16 06:07:18;;;;;;;5.68;3.83;;;17.70;67.10;;;;;;6118420;29;20051;-80
2022/10/16 06:10:18;;;;;;;8.82;3.67;;;17.70;67.10;;;;;;6103705;29;20055;-80
2022/10/16 06:13:19;;;;;;;8.45;4.07;;;17.70;67.10;;;;;;6103397;29;20412;-80
2022/10/16 06:16:20;;;;;;;10.00;4.10;;;17.60;67.00;;;;;;6102714;29;20047;-80
2022/10/16 06:19:22;;;;;;;7.00;3.55;;;17.60;66.90;;;;;;6102491;29;20064;-80
2022/10/16 06:22:23;;;;;;;5.20;3.85;;;17.60;67.10;;;;;;6104355;29;20442;-79
2022/10/16 06:25:25;;;;;;;10.95;4.22;;;17.60;67.10;;;;;;6105567;29;20036;-80
2022/10/16 06:28:26;;;;;;;7.68;4.00;;;17.60;67.10;;;;;;6105482;29;20064;-80
2022/10/16 06:31:30;;;;;;;5.45;3.00;;;17.60;67.10;;;;;;6105487;29;20039;-80
2022/10/16 06:34:31;;;;;;;4.15;3.13;;;17.60;67.10;;;;;;6104233;29;20084;-80
2022/10/16 06:37:32;;;;;;;4.47;2.95;;;17.60;67.00;;;;;;6102464;29;20040;-79
2022/10/16 06:40:33;;;;;;;15.65;3.92;;;17.60;66.90;;;;;;6105278;29;20135;-79
2022/10/16 06:43:36;;;;;;;13.27;2.92;;;17.60;66.90;;;;;;6105437;29;20028;-80
2022/10/16 06:46:37;;;;;;;6.13;2.53;;;17.60;66.80;;;;;;6097674;29;20398;-80
2022/10/16 06:49:38;;;;;;;3.25;2.30;;;17.70;66.90;;;;;;6105023;29;20040;-80
2022/10/16 06:52:39;;;;;;;7.32;2.13;;;17.70;66.70;;;;;;6099043;29;20123;-79
2022/10/16 06:55:40;;;;;;;4.45;1.90;;;17.70;66.50;;;;;;6096442;29;20123;-79
2022/10/16 06:58:41;;;;;;;4.13;2.03;;;17.70;66.40;;;;;;6101614;29;20068;-80
2022/10/16 07:01:42;;;;;;;4.20;2.15;;;17.80;66.40;;;;;;6094975;29;20043;-80
2022/10/16 07:04:43;;;;;;;4.80;2.15;;;17.80;66.30;;;;;;6101498;29;20047;-81
2022/10/16 07:07:44;;;;;;;3.58;1.98;;;17.80;66.30;;;;;;6102429;29;20501;-80
2022/10/16 07:10:45;;;;;;;5.53;1.85;;;17.80;66.20;;;;;;6100641;29;20039;-80
2022/10/16 07:13:47;;;;;;;6.70;2.00;;;17.90;66.30;;;;;;6101425;29;20055;-80
2022/10/16 07:16:48;;;;;;;2.90;1.83;;;17.90;66.00;;;;;;6101848;29;20044;-80
2022/10/16 07:19:49;;;;;;;3.28;2.05;;;17.90;65.90;;;;;;6104150;29;20481;-80
2022/10/16 07:22:50;;;;;;;3.25;2.05;;;18.00;65.80;;;;;;6098277;29;20074;-80
2022/10/16 07:25:55;;;;;;;3.53;1.88;;;18.00;65.70;;;;;;6117788;29;20043;-82
2022/10/16 07:28:57;;;;;;;2.80;1.73;;;18.00;65.70;;;;;;6102973;29;20374;-79
2022/10/16 07:31:58;;;;;;;4.13;1.75;;;18.00;65.60;;;;;;6103843;29;20409;-81
2022/10/16 07:34:58;;;;;;;2.83;1.80;;;18.00;65.50;;;;;;6109500;29;20086;-80
2022/10/16 07:37:59;;;;;;;2.75;1.60;;;18.00;65.30;;;;;;6103704;29;20122;-79
2022/10/16 07:41:05;;;;;;;7.03;1.77;;;18.10;65.00;;;;;;6094910;29;20075;-80
2022/10/16 07:44:06;;;;;;;17.90;6.13;;;18.10;64.80;;;;;;6096451;29;20377;-80
2022/10/16 07:47:08;;;;;;;9.38;1.80;;;18.20;64.90;;;;;;6093242;29;20047;-79
2022/10/16 07:50:08;;;;;;;4.60;1.88;;;18.30;64.60;;;;;;6094329;29;20036;-80
2022/10/16 07:53:11;;;;;;;4.63;1.77;;;18.40;64.30;;;;;;6100922;29;20176;-81
2022/10/16 07:56:12;;;;;;;5.38;1.70;;;18.50;63.90;;;;;;6108055;29;20039;-79
2022/10/16 07:59:13;;;;;;;4.05;1.38;;;18.70;63.50;;;;;;6097588;29;20056;-79
2022/10/16 08:02:14;;;;;;;5.57;2.03;;;18.70;63.20;;;;;;6093458;29;20040;-79
2022/10/16 08:05:15;;;;;;;2.70;1.60;;;18.90;62.50;;;;;;6095190;29;20040;-78
2022/10/16 08:08:17;;;;;;;2.15;1.45;;;18.90;62.20;;;;;;6100895;29;20032;-79
2022/10/16 08:11:18;;;;;;;12.13;2.03;;;19.00;62.50;;;;;;6069571;29;20115;-79
2022/10/16 08:14:19;;;;;;;3.17;1.65;;;19.20;61.50;;;;;;6087593;29;20054;-79
2022/10/16 08:17:20;;;;;;;2.33;1.48;;;19.30;60.70;;;;;;6101145;29;20462;-79
2022/10/16 08:20:21;;;;;;;4.18;2.08;;;19.40;60.30;;;;;;6097583;29;20044;-79
2022/10/16 08:23:22;;;;;;;3.10;1.60;;;19.50;59.60;;;;;;6110460;29;20498;-80
2022/10/16 08:26:23;;;;;;;2.97;1.67;;;19.60;59.30;;;;;;6090361;29;20482;-79
2022/10/16 08:29:24;;;;;;;3.75;1.52;;;19.70;59.00;;;;;;6086416;29;20043;-79
2022/10/16 08:32:25;;;;;;;19.13;6.30;;;19.90;58.90;;;;;;6097558;29;20529;-80
2022/10/16 08:35:26;;;;;;;3.97;2.20;;;20.00;58.50;;;;;;6079332;29;20047;-79
2022/10/16 08:38:27;;;;;;;6.50;2.95;;;20.10;58.10;;;;;;6093699;29;20028;-79
2022/10/16 08:41:46;;;;;;;10.07;4.35;;;20.20;57.80;;;;;;6090859;29;20481;-80
2022/10/16 08:45:20;;;;;;;8.35;3.35;;;20.30;57.60;;;;;;6099609;29;20257;-80
2022/10/16 08:48:35;;;;;;;5.78;2.38;;;20.40;57.30;;;;;;6082073;29;20124;-80
2022/10/16 08:51:37;;;;;;;5.53;1.58;;;20.60;57.20;;;;;;6087954;29;20040;-80
2022/10/16 08:54:43;;;;;;;2.40;1.30;;;20.70;56.70;;;;;;6096786;29;20186;-81
2022/10/16 08:57:44;;;;;;;4.28;1.38;;;20.80;56.60;;;;;;6074268;29;20094;-81
2022/10/16 09:00:54;;;;;;;3.35;1.60;;;20.90;56.10;;;;;;6089421;29;20097;-81
2022/10/16 09:04:28;;;;;;;3.28;1.10;;;21.00;56.30;;;;;;6094669;29;20132;-80
2022/10/16 09:08:00;;;;;;;4.97;1.55;;;21.10;55.80;;;;;;5999810;29;20177;-81
2022/10/16 09:11:28;;;;;;;3.47;1.20;;;21.30;55.60;;;;;;6001112;29;20132;-81
2022/10/16 09:14:42;;;;;;;8.32;1.10;;;21.40;55.10;;;;;;5996408;29;20046;-81
2022/10/16 09:18:04;;;;;;;4.68;1.00;;;21.50;55.00;;;;;;6004989;29;20129;-81
2022/10/16 09:21:10;;;;;;;3.10;1.13;;;21.70;55.00;;;;;;5997913;29;20471;-81
2022/10/16 09:24:17;;;;;;;3.10;1.60;;;21.80;54.80;;;;;;5990899;29;20046;-80
2022/10/16 09:27:18;;;;;;;1.90;1.00;;;21.90;54.70;;;;;;6013306;29;20428;-81
2022/10/16 09:30:21;;;;;;;5.10;1.70;;;22.10;54.50;;;;;;5991206;29;20038;-80
2022/10/16 09:33:36;;;;;;;5.75;1.63;;;22.20;54.40;;;;;;6010040;29;20084;-80
2022/10/16 09:36:43;;;;;;;4.05;1.40;;;22.20;54.10;;;;;;5998490;29;20460;-80
2022/10/16 09:39:46;;;;;;;1.70;1.20;;;22.30;53.90;;;;;;6010370;29;20087;-80
2022/10/16 09:42:47;;;;;;;2.50;1.27;;;22.30;54.20;;;;;;6005225;29;20046;-80
2022/10/16 09:45:59;;;;;;;1.88;1.23;;;22.40;53.50;;;;;;6093175;29;20048;-80
2022/10/16 09:49:05;;;;;;;4.22;1.15;;;22.50;53.40;;;;;;6092769;29;20509;-80
2022/10/16 09:52:12;;;;;;;2.35;1.27;;;22.60;53.00;;;;;;6095678;29;20123;-80
2022/10/16 09:55:17;;;;;;;4.18;1.80;;;22.60;52.80;;;;;;6079685;29;20061;-80
2022/10/16 09:58:20;;;;;;;7.10;1.60;;;22.70;52.70;;;;;;6099496;29;20044;-80
2022/10/16 10:01:38;;;;;;;7.47;1.33;;;22.70;52.50;;;;;;6092987;29;20040;-81
2022/10/16 10:04:49;;;;;;;1.50;1.27;;;22.80;52.50;;;;;;6086883;29;20135;-80
2022/10/16 10:08:08;;;;;;;2.95;1.33;;;23.00;52.60;;;;;;6097016;29;20183;-80
2022/10/16 10:11:09;;;;;;;3.78;1.48;;;23.20;52.20;;;;;;6093694;29;20351;-80
2022/10/16 10:14:18;;;;;;;3.78;1.35;;;23.50;51.70;;;;;;6093468;29;20040;-81
2022/10/16 10:17:25;;;;;;;6.75;1.73;;;23.80;51.30;;;;;;6092884;29;20048;-80
2022/10/16 10:20:27;;;;;;;7.97;1.85;;;24.20;50.80;;;;;;6058295;29;20241;-81
2022/10/16 10:23:32;;;;;;;4.45;1.50;;;24.50;50.50;;;;;;6106685;29;20028;-81
2022/10/16 10:26:33;;;;;;;4.43;2.10;;;24.80;50.00;;;;;;6107688;29;20462;-81
2022/10/16 10:29:55;;;;;;;4.97;1.70;;;25.10;49.20;;;;;;6095804;29;20131;-82
2022/10/16 10:33:25;;;;;;;3.03;1.30;;;25.30;49.00;;;;;;6089009;29;20461;-81
2022/10/16 10:36:40;;;;;;;3.92;1.27;;;25.50;48.40;;;;;;6093682;29;20037;-81
2022/10/16 10:39:56;;;;;;;6.57;1.50;;;25.80;47.70;;;;;;6098038;29;20131;-81
2022/10/16 10:43:23;;;;;;;3.38;1.30;;;26.10;47.30;;;;;;6088098;29;20036;-81
2022/10/16 10:46:49;;;;;;;4.32;1.52;;;26.30;46.70;;;;;;6095249;29;20047;-81
2022/10/16 10:50:05;;;;;;;3.28;1.55;;;26.60;46.50;;;;;;6087303;29;20051;-81
2022/10/16 10:53:18;;;;;;;5.28;2.50;;;26.90;45.90;;;;;;6078776;29;20067;-81
2022/10/16 10:56:40;;;;;;;4.40;1.50;;;27.10;45.60;;;;;;6095494;29;20339;-81
2022/10/16 10:59:41;;;;;;;5.20;1.73;;;27.30;45.30;;;;;;6095673;29;20047;-81
2022/10/16 11:03:07;;;;;;;3.42;1.45;;;27.70;44.60;;;;;;6097866;29;20135;-80
2022/10/16 11:06:13;;;;;;;3.65;1.60;;;28.00;44.20;;;;;;6088024;29;20083;-80
2022/10/16 11:09:34;;;;;;;4.03;1.77;;;28.40;43.60;;;;;;6099540;29;20036;-82
2022/10/16 11:13:10;;;;;;;7.63;1.50;;;28.90;43.00;;;;;;6101998;29;20036;-81
2022/10/16 11:16:32;;;;;;;2.60;1.30;;;29.40;42.30;;;;;;6087418;29;20123;-81
2022/10/16 11:19:47;;;;;;;4.95;1.40;;;29.80;41.50;;;;;;6098604;29;20036;-81
2022/10/16 11:22:58;;;;;;;4.32;1.20;;;30.10;40.40;;;;;;6095004;29;20099;-81
2022/10/16 11:26:06;;;;;;;4.28;1.23;;;30.40;39.40;;;;;;6084882;29;20036;-81
2022/10/16 11:29:16;;;;;;;6.05;1.17;;;30.80;38.50;;;;;;6104198;29;20407;-80
2022/10/16 11:32:54;;;;;;;4.15;1.30;;;31.30;37.60;;;;;;6091133;29;20416;-81
2022/10/16 11:36:05;;;;;;;7.45;1.55;;;31.90;36.40;;;;;;6089415;29;20036;-81
2022/10/16 11:39:20;;;;;;;7.78;1.50;;;32.40;35.40;;;;;;6094366;29;20036;-81
2022/10/16 11:42:27;;;;;;;1.77;1.30;;;32.80;34.60;;;;;;6101618;29;20050;-82
2022/10/16 11:45:49;;;;;;;5.28;1.80;;;33.00;33.90;;;;;;6081064;29;20055;-81
2022/10/16 11:48:54;;;;;;;4.50;1.52;;;33.20;33.00;;;;;;6098801;29;20450;-83
2022/10/16 11:52:12;;;;;;;4.57;1.67;;;33.40;32.20;;;;;;6105892;29;20091;-82
2022/10/16 11:55:16;;;;;;;;;;;33.60;31.20;;;;;;6090987;29;20558;-81
2022/10/16 11:58:34;;;;;;;3.90;1.67;;;33.80;30.40;;;;;;6098733;29;19915;-81
2022/10/16 12:01:51;;;;;;;2.00;1.00;;;34.00;29.80;;;;;;6096428;29;20135;-81
2022/10/16 12:05:18;;;;;;;2.78;1.33;;;34.30;29.30;;;;;;6094556;29;20040;-81
2022/10/16 12:08:20;;;;;;;9.10;1.45;;;34.50;28.90;;;;;;6096901;29;20035;-81
2022/10/16 12:11:31;;;;;;;6.60;1.20;;;34.70;28.30;;;;;;6098403;29;20056;-81
2022/10/16 12:14:35;;;;;;;1.77;1.10;;;35.10;28.20;;;;;;6094955;29;20374;-81
2022/10/16 12:17:38;;;;;;;1.90;1.10;;;35.70;27.80;;;;;;6097887;29;20055;-81
2022/10/16 12:20:45;;;;;;;1.33;0.98;;;36.30;26.80;;;;;;6088030;29;20426;-81
2022/10/16 12:23:46;;;;;;;;;;;36.70;25.80;;;;;;6073961;29;20036;-81
2022/10/16 12:26:48;;;;;;;3.25;1.00;;;37.10;25.40;;;;;;6095529;29;20465;-80
2022/10/16 12:29:55;;;;;;;3.17;1.08;;;37.10;24.60;;;;;;6112707;29;20044;-80
2022/10/16 12:33:03;;;;;;;2.30;1.10;;;37.10;24.60;;;;;;6097783;29;20443;-80
2022/10/16 12:36:26;;;;;;;3.20;1.13;;;36.60;24.50;;;;;;6097994;29;20050;-80
2022/10/16 12:39:28;;;;;;;2.05;0.95;;;35.80;25.10;;;;;;6094465;29;20191;-80
2022/10/16 12:42:29;;;;;;;1.65;0.90;;;34.80;25.30;;;;;;6098348;29;20055;-81
2022/10/16 12:45:34;;;;;;;1.38;1.00;;;34.10;25.90;;;;;;6109615;29;20111;-81
2022/10/16 12:48:40;;;;;;;2.13;1.00;;;33.50;26.50;;;;;;6097336;29;20072;-80
2022/10/16 12:51:42;;;;;;;8.23;1.00;;;33.00;27.00;;;;;;6100439;29;20054;-80
2022/10/16 12:54:43;;;;;;;0.90;0.70;;;32.60;27.00;;;;;;6108917;29;20131;-80
2022/10/16 12:58:21;;;;;;;3.65;1.23;;;32.30;27.30;;;;;;6100695;29;20039;-81
2022/10/16 13:01:25;;;;;;;2.10;1.23;;;31.90;27.70;;;;;;6099009;29;20035;-82
2022/10/16 13:04:34;;;;;;;1.90;1.35;;;31.60;28.10;;;;;;6106006;29;20048;-81
2022/10/16 13:08:00;;;;;;;0.88;0.70;;;31.40;28.30;;;;;;6102839;29;20059;-81
2022/10/16 13:11:32;;;;;;;1.77;0.90;;;31.20;28.10;;;;;;6102329;29;20127;-81
2022/10/16 13:14:44;;;;;;;2.67;1.05;;;31.10;28.30;;;;;;6099182;29;20042;-81
2022/10/16 13:18:30;;;;;;;2.25;0.70;;;31.00;28.40;;;;;;6098118;29;20086;-82
2022/10/16 13:21:51;;;;;;;4.78;1.13;;;30.90;28.60;;;;;;6042704;29;20048;-80
2022/10/16 13:25:41;;;;;;;1.48;0.80;;;30.80;28.60;;;;;;6073776;29;20525;-81
2022/10/16 13:28:43;;;;;;;0.90;0.75;;;30.70;28.60;;;;;;5993540;29;20453;-80
2022/10/16 13:31:45;;;;;;;0.77;0.68;;;30.70;28.60;;;;;;5957635;29;20046;-81
2022/10/16 13:34:48;;;;;;;1.48;0.80;;;30.60;28.70;;;;;;5986148;29;20085;-80
2022/10/16 13:37:49;;;;;;;3.63;0.90;;;30.60;28.80;;;;;;5983180;29;20054;-81
2022/10/16 13:41:18;;;;;;;1.27;0.88;;;30.50;28.70;;;;;;5970244;29;20049;-81
2022/10/16 13:44:20;;;;;;;2.45;0.90;;;30.50;28.80;;;;;;5921133;30;20488;-81
2022/10/16 13:47:24;;;;;;;0.75;0.70;;;30.50;28.60;;;;;;5901427;30;20048;-80
2022/10/16 13:50:25;;;;;;;6.65;0.80;;;30.50;28.60;;;;;;5890986;30;20082;-80
2022/10/16 13:53:26;;;;;;;1.60;0.90;;;30.50;28.40;;;;;;5899329;30;20518;-80
2022/10/16 13:56:29;;;;;;;3.05;0.80;;;30.50;28.40;;;;;;5923687;30;20165;-81
2022/10/16 13:59:35;;;;;;;4.75;0.80;;;30.40;28.40;;;;;;5930545;29;20039;-80
2022/10/16 14:02:39;;;;;;;2.50;1.00;;;30.40;28.40;;;;;;5939545;29;20047;-82
2022/10/16 14:05:53;;;;;;;0.93;0.75;;;30.30;28.40;;;;;;6009378;29;20057;-79
2022/10/16 14:09:07;;;;;;;1.77;0.65;;;30.20;28.50;;;;;;6026754;29;20104;-81
2022/10/16 14:12:11;;;;;;;9.32;0.90;;;30.20;28.60;;;;;;6021633;29;20439;-80
2022/10/16 14:15:19;;;;;;;1.98;0.77;;;30.20;28.80;;;;;;6018815;29;20057;-82
2022/10/16 14:18:23;;;;;;;1.70;0.90;;;30.20;28.70;;;;;;5999365;29;20086;-81
2022/10/16 14:21:24;;;;;;;2.08;0.90;;;30.10;28.60;;;;;;6064495;29;20060;-80
2022/10/16 14:24:35;;;;;;;3.00;0.85;;;30.10;28.40;;;;;;6096328;29;20096;-80
2022/10/16 14:27:37;;;;;;;1.80;1.20;;;30.10;28.50;;;;;;6093185;29;20040;-80
2022/10/16 14:30:59;;;;;;;1.38;0.88;;;30.10;28.60;;;;;;6100615;29;20123;-80
2022/10/16 14:34:00;;;;;;;3.95;1.13;;;30.10;28.50;;;;;;6098996;29;20051;-81
2022/10/16 14:37:06;;;;;;;2.78;0.77;;;30.10;28.50;;;;;;6104904;29;20036;-80
2022/10/16 14:40:15;;;;;;;6.47;0.90;;;30.00;28.60;;;;;;6096088;29;20059;-81
2022/10/16 14:43:28;;;;;;;3.90;0.98;;;30.00;28.80;;;;;;6094889;29;20032;-80
2022/10/16 14:46:34;;;;;;;0.85;0.80;;;30.00;28.70;;;;;;6096525;29;20035;-81
2022/10/16 14:49:35;;;;;;;3.15;1.38;;;29.90;28.80;;;;;;6100442;29;20075;-80
2022/10/16 14:52:36;;;;;;;1.58;0.65;;;29.90;28.90;;;;;;6105659;29;20032;-80
2022/10/16 14:55:38;;;;;;;3.03;0.85;;;29.80;28.80;;;;;;6101453;29;20378;-81
2022/10/16 14:58:39;;;;;;;7.70;0.95;;;29.80;28.80;;;;;;6098635;29;20059;-83
2022/10/16 15:01:40;;;;;;;1.95;1.10;;;29.80;29.00;;;;;;6109691;29;20091;-81
2022/10/16 15:04:42;;;;;;;5.47;0.82;;;29.70;29.10;;;;;;6099692;29;20470;-81
2022/10/16 15:07:43;;;;;;;1.35;0.80;;;29.70;29.00;;;;;;6101814;29;20115;-81
2022/10/16 15:10:44;;;;;;;3.53;0.80;;;29.60;29.10;;;;;;6103730;29;20052;-82
2022/10/16 15:13:46;;;;;;;1.77;0.70;;;29.50;29.10;;;;;;6104635;29;20051;-81
2022/10/16 15:16:47;;;;;;;2.80;0.80;;;29.50;29.10;;;;;;6109074;29;20044;-81
2022/10/16 15:19:47;;;;;;;1.83;0.80;;;29.40;29.10;;;;;;6078439;29;20063;-81
2022/10/16 15:22:48;;;;;;;4.03;0.70;;;29.40;29.10;;;;;;6099485;29;20553;-81
2022/10/16 15:25:52;;;;;;;2.03;0.90;;;29.40;29.10;;;;;;6098468;29;20104;-81
2022/10/16 15:28:54;;;;;;;1.00;0.82;;;29.30;29.20;;;;;;6096732;29;20159;-81
2022/10/16 15:31:55;;;;;;;2.25;0.95;;;29.30;29.30;;;;;;6097448;29;20071;-80
2022/10/16 15:34:56;;;;;;;1.98;1.02;;;29.30;29.40;;;;;;6100216;29;20377;-80
2022/10/16 15:37:57;;;;;;;19.70;1.15;;;29.20;29.40;;;;;;6095297;29;20112;-81
2022/10/16 15:40:58;;;;;;;3.58;0.90;;;29.20;29.40;;;;;;6112033;29;20378;-80
2022/10/16 15:43:59;;;;;;;3.08;0.98;;;29.20;29.50;;;;;;6101468;29;20044;-81
2022/10/16 15:47:01;;;;;;;4.10;0.93;;;29.10;29.50;;;;;;6097641;29;20044;-81
2022/10/16 15:50:02;;;;;;;3.45;0.90;;;29.10;29.40;;;;;;6096748;29;20374;-81
2022/10/16 15:53:03;;;;;;;8.25;1.10;;;29.10;29.50;;;;;;6107918;29;20040;-80
2022/10/16 15:56:07;;;;;;;4.07;1.00;;;29.00;29.50;;;;;;6096735;29;20112;-81
2022/10/16 15:59:08;;;;;;;4.00;1.23;;;29.00;29.70;;;;;;6099851;29;20036;-80
2022/10/16 16:02:09;;;;;;;3.00;0.80;;;28.90;29.70;;;;;;6082464;29;20032;-81
2022/10/16 16:05:11;;;;;;;1.48;0.90;;;28.80;29.80;;;;;;6088859;29;20035;-81
2022/10/16 16:08:12;;;;;;;2.80;1.08;;;28.70;29.90;;;;;;6096124;29;20135;-80